createdAt,value
2019-03-31T00:02:24.300Z,45.23
2019-03-31T00:04:52.749Z,45.00
2019-03-31T00:07:24.174Z,41.20
2019-03-31T00:09:54.154Z,35.80
2019-03-31T00:12:22.682Z,37.83
2019-03-31T00:14:51.118Z,34.83
2019-03-31T00:17:19.558Z,34.87
2019-03-31T00:19:47.990Z,31.90
2019-03-31T00:22:16.429Z,34.97
2019-03-31T00:24:45.063Z,35.40
2019-03-31T00:27:13.502Z,29.87
2019-03-31T00:29:41.937Z,31.23
2019-03-31T00:32:10.392Z,33.00
2019-03-31T00:34:38.858Z,31.13
2019-03-31T00:37:07.872Z,30.50
2019-03-31T00:39:36.417Z,32.73
2019-03-31T00:42:04.866Z,29.80
2019-03-31T00:44:33.310Z,29.87
2019-03-31T00:47:02.303Z,30.50
2019-03-31T00:49:31.061Z,31.53
2019-03-31T00:51:59.506Z,30.50
2019-03-31T00:54:28.045Z,32.17
2019-03-31T00:56:57.214Z,27.20
2019-03-31T00:59:25.662Z,23.93
2019-03-31T01:01:56.077Z,20.13
2019-03-31T01:04:26.621Z,21.10
2019-03-31T01:06:55.907Z,18.87
2019-03-31T01:09:28.314Z,18.10
2019-03-31T01:11:57.297Z,18.60
2019-03-31T01:14:26.531Z,19.83
2019-03-31T01:16:55.247Z,20.27
2019-03-31T01:19:24.041Z,20.63
2019-03-31T01:21:52.491Z,19.97
2019-03-31T01:24:21.113Z,16.83
2019-03-31T01:26:49.549Z,17.80
2019-03-31T01:29:18.422Z,16.03
2019-03-31T01:31:50.573Z,14.47
2019-03-31T01:34:18.170Z,14.27
2019-03-31T01:36:46.610Z,14.07
2019-03-31T01:39:15.321Z,13.20
2019-03-31T01:41:43.780Z,11.87
2019-03-31T01:44:12.350Z,12.93
2019-03-31T01:46:40.805Z,14.40
2019-03-31T01:49:09.502Z,15.13
2019-03-31T01:51:37.941Z,13.70
2019-03-31T01:54:06.390Z,13.27
2019-03-31T01:56:34.816Z,16.03
2019-03-31T01:59:03.246Z,13.97
2019-03-31T02:01:31.965Z,14.83
2019-03-31T02:04:00.515Z,14.40
2019-03-31T02:06:38.103Z,14.50
2019-03-31T02:09:07.501Z,14.70
2019-03-31T02:11:36.006Z,15.23
2019-03-31T02:14:04.696Z,14.77
2019-03-31T02:16:33.171Z,15.33
2019-03-31T02:19:01.608Z,14.60
2019-03-31T02:21:30.041Z,13.60
2019-03-31T02:23:58.478Z,15.27
2019-03-31T02:26:26.914Z,14.07
2019-03-31T02:28:55.373Z,14.70
2019-03-31T02:31:23.798Z,14.70
2019-03-31T02:33:52.265Z,13.93
2019-03-31T02:36:20.721Z,13.67
2019-03-31T02:38:49.342Z,12.80
2019-03-31T02:41:17.782Z,14.27
2019-03-31T02:43:46.311Z,14.00
2019-03-31T02:46:14.759Z,12.60
2019-03-31T02:48:43.184Z,13.20
2019-03-31T02:51:11.635Z,12.50
2019-03-31T02:53:40.082Z,11.80
2019-03-31T02:56:09.131Z,11.57
2019-03-31T02:58:38.223Z,11.80
2019-03-31T03:01:07.754Z,11.20
2019-03-31T03:03:39.193Z,11.10
2019-03-31T03:06:10.313Z,11.40
2019-03-31T03:08:41.176Z,11.60
2019-03-31T03:11:12.436Z,10.40
2019-03-31T03:13:43.401Z,10.73
2019-03-31T03:16:19.297Z,10.90
2019-03-31T03:18:48.785Z,10.30
2019-03-31T03:21:17.483Z,9.77
2019-03-31T03:23:45.914Z,9.40
2019-03-31T03:26:14.523Z,9.07
2019-03-31T03:28:42.955Z,10.87
2019-03-31T03:31:15.670Z,9.27
2019-03-31T03:33:41.919Z,9.37
2019-03-31T03:36:11.846Z,8.87
2019-03-31T03:38:40.475Z,8.23
2019-03-31T03:41:08.914Z,7.63
2019-03-31T03:43:54.075Z,8.20
2019-03-31T03:46:07.502Z,9.00
2019-03-31T03:48:35.938Z,6.83
2019-03-31T03:51:05.918Z,7.50
2019-03-31T03:53:34.431Z,6.80
2019-03-31T03:56:02.878Z,6.53
2019-03-31T03:58:31.369Z,7.50
2019-03-31T04:00:59.815Z,6.97
2019-03-31T04:03:30.386Z,5.90
2019-03-31T04:05:58.426Z,6.30
2019-03-31T04:08:26.852Z,5.43
2019-03-31T04:11:09.620Z,6.33
2019-03-31T04:13:38.054Z,5.43
2019-03-31T04:16:06.498Z,5.47
2019-03-31T04:18:34.938Z,5.13
2019-03-31T04:21:03.455Z,5.20
2019-03-31T04:23:31.883Z,5.30
2019-03-31T04:26:00.344Z,4.50
2019-03-31T04:28:28.847Z,6.03
2019-03-31T04:30:57.344Z,4.60
2019-03-31T04:33:25.795Z,4.53
2019-03-31T04:35:54.331Z,4.50
2019-03-31T04:38:23.621Z,4.00
2019-03-31T04:40:52.044Z,4.83
2019-03-31T04:43:20.549Z,4.80
2019-03-31T04:45:49.086Z,3.23
2019-03-31T04:48:17.522Z,3.70
2019-03-31T04:50:45.950Z,3.50
2019-03-31T04:53:14.387Z,3.70
2019-03-31T04:55:42.830Z,2.70
2019-03-31T04:58:12.178Z,3.57
2019-03-31T05:00:40.873Z,2.93
2019-03-31T05:03:09.318Z,2.73
2019-03-31T05:05:37.750Z,2.03
2019-03-31T05:08:06.195Z,2.20
2019-03-31T05:10:34.774Z,2.93
2019-03-31T05:13:03.223Z,2.37
2019-03-31T05:15:31.755Z,2.77
2019-03-31T05:18:00.192Z,3.30
2019-03-31T05:20:28.637Z,2.47
2019-03-31T05:22:57.137Z,1.90
2019-03-31T05:25:25.567Z,2.17
2019-03-31T05:27:54.026Z,2.50
2019-03-31T05:30:22.473Z,2.50
2019-03-31T05:32:52.542Z,3.27
2019-03-31T05:35:20.964Z,2.10
2019-03-31T05:37:52.902Z,2.50
2019-03-31T05:40:21.345Z,2.53
2019-03-31T05:42:50.145Z,2.13
2019-03-31T05:45:37.922Z,2.27
2019-03-31T05:48:06.349Z,2.20
2019-03-31T05:50:34.782Z,2.23
2019-03-31T05:53:03.211Z,2.77
2019-03-31T05:55:31.681Z,2.30
2019-03-31T05:58:00.127Z,2.57
2019-03-31T06:00:31.917Z,2.70
2019-03-31T06:03:00.341Z,2.53
2019-03-31T06:05:28.826Z,3.03
2019-03-31T06:07:57.270Z,2.20
2019-03-31T06:10:25.719Z,2.33
2019-03-31T06:12:54.166Z,2.60
2019-03-31T06:15:22.597Z,2.07
2019-03-31T06:17:51.024Z,1.80
2019-03-31T06:20:19.466Z,3.20
2019-03-31T06:22:47.889Z,2.60
2019-03-31T06:25:16.475Z,1.93
2019-03-31T06:27:44.937Z,2.77
2019-03-31T06:30:13.813Z,2.50
2019-03-31T06:32:42.246Z,2.47
2019-03-31T06:35:10.687Z,2.47
2019-03-31T06:37:39.114Z,2.30
2019-03-31T06:40:07.991Z,2.20
2019-03-31T06:42:36.419Z,3.27
2019-03-31T06:45:06.571Z,3.00
2019-03-31T06:47:35.019Z,2.87
2019-03-31T06:50:06.680Z,4.30
2019-03-31T06:52:35.107Z,2.30
2019-03-31T06:55:05.874Z,3.73
2019-03-31T06:57:34.315Z,3.77
2019-03-31T07:00:03.202Z,3.40
2019-03-31T07:02:31.649Z,3.60
2019-03-31T07:05:01.326Z,2.60
2019-03-31T07:07:30.319Z,3.77
2019-03-31T07:09:58.753Z,3.10
2019-03-31T07:12:27.190Z,2.67
2019-03-31T07:14:55.629Z,2.80
2019-03-31T07:17:24.075Z,4.20
2019-03-31T07:19:52.498Z,4.30
2019-03-31T07:22:24.255Z,3.37
2019-03-31T07:24:53.542Z,3.10
2019-03-31T07:27:22.120Z,2.60
2019-03-31T07:29:50.555Z,3.10
2019-03-31T07:32:18.985Z,3.30
2019-03-31T07:34:47.432Z,3.33
2019-03-31T07:37:15.902Z,4.40
2019-03-31T07:39:46.204Z,3.47
2019-03-31T07:42:15.648Z,2.83
2019-03-31T07:44:44.109Z,3.80
2019-03-31T07:47:13.596Z,3.90
2019-03-31T07:49:42.179Z,3.53
2019-03-31T07:52:10.666Z,2.67
2019-03-31T07:54:39.095Z,2.57
2019-03-31T07:57:07.692Z,2.90
2019-03-31T07:59:36.352Z,2.93
2019-03-31T08:02:04.794Z,3.20
2019-03-31T08:04:33.225Z,3.10
2019-03-31T08:07:01.766Z,3.90
2019-03-31T08:09:30.181Z,1.80
2019-03-31T08:12:01.623Z,1.90
2019-03-31T08:14:30.048Z,3.07
2019-03-31T08:16:58.493Z,2.97
2019-03-31T08:19:27.136Z,2.50
2019-03-31T08:21:56.855Z,2.00
2019-03-31T08:24:25.588Z,3.13
2019-03-31T08:26:54.075Z,3.77
2019-03-31T08:29:22.615Z,1.57
2019-03-31T08:31:51.506Z,2.70
2019-03-31T08:34:19.929Z,1.80
2019-03-31T08:36:48.533Z,1.60
2019-03-31T08:39:17.020Z,1.97
2019-03-31T08:41:45.505Z,1.80
2019-03-31T08:44:13.941Z,2.10
2019-03-31T08:46:42.375Z,2.30
2019-03-31T08:49:10.890Z,2.67
2019-03-31T08:51:39.313Z,1.80
2019-03-31T08:54:07.927Z,2.70
2019-03-31T08:56:36.350Z,2.40
2019-03-31T08:59:04.789Z,2.17
2019-03-31T09:01:33.246Z,2.37
2019-03-31T09:04:01.691Z,1.80
2019-03-31T09:06:30.136Z,2.13
2019-03-31T09:08:58.768Z,2.90
2019-03-31T09:11:27.334Z,2.20
2019-03-31T09:13:55.958Z,2.03
2019-03-31T09:16:24.461Z,2.70
2019-03-31T09:18:53.945Z,1.90
2019-03-31T09:21:22.381Z,1.50
2019-03-31T09:23:50.870Z,1.40
2019-03-31T09:26:19.486Z,1.70
2019-03-31T09:28:47.921Z,2.10
2019-03-31T09:31:16.541Z,1.50
2019-03-31T09:33:44.970Z,1.53
2019-03-31T09:36:16.311Z,1.80
2019-03-31T09:38:43.710Z,2.00
2019-03-31T09:41:12.155Z,1.93
2019-03-31T09:43:40.589Z,2.70
2019-03-31T09:46:09.057Z,3.03
2019-03-31T09:48:37.549Z,2.60
2019-03-31T09:51:05.987Z,2.13
2019-03-31T09:53:34.482Z,2.10
2019-03-31T09:56:02.921Z,1.50
2019-03-31T09:58:31.350Z,1.50
2019-03-31T10:00:59.786Z,3.60
2019-03-31T10:03:29.659Z,2.27
2019-03-31T10:06:09.897Z,2.13
2019-03-31T10:08:28.569Z,2.07
2019-03-31T10:10:57.292Z,2.03
2019-03-31T10:13:25.836Z,2.00
2019-03-31T10:15:54.317Z,2.03
2019-03-31T10:18:22.802Z,2.10
2019-03-31T10:20:51.254Z,2.17
2019-03-31T10:23:19.673Z,2.20
2019-03-31T10:25:48.114Z,2.10
2019-03-31T10:28:16.561Z,1.80
2019-03-31T10:30:45.057Z,2.10
2019-03-31T10:33:13.567Z,3.03
2019-03-31T10:35:44.702Z,1.93
2019-03-31T10:38:13.147Z,2.10
2019-03-31T10:40:41.658Z,2.47
2019-03-31T10:43:10.076Z,1.70
2019-03-31T10:45:38.639Z,1.63
2019-03-31T10:48:19.713Z,3.07
2019-03-31T10:50:37.293Z,2.60
2019-03-31T10:53:05.788Z,2.60
2019-03-31T10:55:34.229Z,2.30
2019-03-31T10:58:02.683Z,2.40
2019-03-31T11:00:44.620Z,1.83
2019-03-31T11:03:16.405Z,1.77
2019-03-31T11:05:44.905Z,2.50
2019-03-31T11:08:13.362Z,2.10
2019-03-31T11:10:41.785Z,2.20
2019-03-31T11:13:10.259Z,2.00
2019-03-31T11:15:38.761Z,1.87
2019-03-31T11:18:07.200Z,2.80
2019-03-31T11:20:35.639Z,2.17
2019-03-31T11:23:20.760Z,2.00
2019-03-31T11:25:50.207Z,2.00
2019-03-31T11:28:18.657Z,2.43
2019-03-31T11:30:47.123Z,2.53
2019-03-31T11:33:17.061Z,2.20
2019-03-31T11:35:45.529Z,1.83
2019-03-31T11:38:13.996Z,2.67
2019-03-31T11:40:45.317Z,2.60
2019-03-31T11:43:13.786Z,2.27
2019-03-31T11:45:42.217Z,2.53
2019-03-31T11:48:12.081Z,1.90
2019-03-31T11:50:40.514Z,2.23
2019-03-31T11:53:09.625Z,2.50
2019-03-31T11:55:38.124Z,2.40
2019-03-31T11:58:06.593Z,2.90
2019-03-31T12:00:36.665Z,3.57
2019-03-31T12:03:05.097Z,3.00
2019-03-31T12:05:34.858Z,3.27
2019-03-31T12:08:03.933Z,3.10
2019-03-31T12:10:32.532Z,1.97
2019-03-31T12:13:00.977Z,3.60
2019-03-31T12:15:31.086Z,2.57
2019-03-31T12:17:59.534Z,2.60
2019-03-31T12:20:28.047Z,2.20
2019-03-31T12:22:56.550Z,2.10
2019-03-31T12:25:24.993Z,3.07
2019-03-31T12:27:53.427Z,2.00
2019-03-31T12:30:26.754Z,2.57
2019-03-31T12:32:55.657Z,2.93
2019-03-31T12:35:24.317Z,1.90
2019-03-31T12:37:52.746Z,2.47
2019-03-31T12:40:37.367Z,2.40
2019-03-31T12:43:05.824Z,1.77
2019-03-31T12:45:34.325Z,1.70
2019-03-31T12:48:02.776Z,1.97
2019-03-31T12:50:31.213Z,2.07
2019-03-31T12:52:59.672Z,1.87
2019-03-31T12:55:28.118Z,2.13
2019-03-31T12:57:56.549Z,2.20
2019-03-31T13:00:25.029Z,2.53
2019-03-31T13:02:53.470Z,3.60
2019-03-31T13:05:21.914Z,2.20
2019-03-31T13:07:56.739Z,2.13
2019-03-31T13:10:20.746Z,2.60
2019-03-31T13:12:53.966Z,2.13
2019-03-31T13:15:22.463Z,1.50
2019-03-31T13:17:51.029Z,2.00
2019-03-31T13:20:19.474Z,2.27
2019-03-31T13:22:47.910Z,2.10
2019-03-31T13:25:16.359Z,2.27
2019-03-31T13:27:44.865Z,1.80
2019-03-31T13:30:14.368Z,2.90
2019-03-31T13:32:43.127Z,4.73
2019-03-31T13:35:11.821Z,2.77
2019-03-31T13:37:40.249Z,2.30
2019-03-31T13:40:09.823Z,2.27
2019-03-31T13:42:38.259Z,4.90
2019-03-31T13:45:07.279Z,2.47
2019-03-31T13:47:35.785Z,2.13
2019-03-31T13:50:07.049Z,2.60
2019-03-31T13:52:35.495Z,2.50
2019-03-31T13:55:09.011Z,2.40
2019-03-31T13:57:39.261Z,3.10
2019-03-31T14:00:12.947Z,2.50
2019-03-31T14:02:41.365Z,2.03
2019-03-31T14:05:10.439Z,2.93
2019-03-31T14:07:38.875Z,2.37
2019-03-31T14:10:07.890Z,2.60
2019-03-31T14:12:36.325Z,2.00
2019-03-31T14:15:18.459Z,2.50
2019-03-31T14:17:37.202Z,2.57
2019-03-31T14:20:07.474Z,2.27
2019-03-31T14:22:36.238Z,2.40
2019-03-31T14:25:06.423Z,2.20
2019-03-31T14:27:34.871Z,2.90
2019-03-31T14:30:05.382Z,2.50
2019-03-31T14:32:33.867Z,3.03
2019-03-31T14:35:02.311Z,3.17
2019-03-31T14:37:32.030Z,3.43
2019-03-31T14:40:00.661Z,1.80
2019-03-31T14:42:29.102Z,2.50
2019-03-31T14:44:57.532Z,2.57
2019-03-31T14:47:26.117Z,2.53
2019-03-31T14:49:54.554Z,2.03
2019-03-31T14:52:27.773Z,5.73
2019-03-31T14:54:55.734Z,3.30
2019-03-31T14:57:23.496Z,1.97
2019-03-31T14:59:51.921Z,2.47
2019-03-31T15:02:20.369Z,2.80
2019-03-31T15:04:48.843Z,2.53
2019-03-31T15:07:17.277Z,2.30
2019-03-31T15:09:45.900Z,1.80
2019-03-31T15:12:14.338Z,2.10
2019-03-31T15:14:42.870Z,2.50
2019-03-31T15:17:11.337Z,2.80
2019-03-31T15:19:39.765Z,2.40
2019-03-31T15:22:08.237Z,2.80
2019-03-31T15:24:36.666Z,2.70
2019-03-31T15:27:05.104Z,2.17
2019-03-31T15:29:33.558Z,2.13
2019-03-31T15:32:01.991Z,2.40
2019-03-31T15:34:30.443Z,2.00
2019-03-31T15:36:58.874Z,3.40
2019-03-31T15:39:27.314Z,3.00
2019-03-31T15:41:56.313Z,3.67
2019-03-31T15:44:24.848Z,2.07
2019-03-31T15:46:54.542Z,2.40
2019-03-31T15:49:22.983Z,1.70
2019-03-31T15:51:51.423Z,1.90
2019-03-31T15:54:19.888Z,1.47
2019-03-31T15:56:48.394Z,2.10
2019-03-31T15:59:16.828Z,2.13
2019-03-31T16:01:45.253Z,2.23
2019-03-31T16:04:13.693Z,1.53
2019-03-31T16:06:42.318Z,1.53
2019-03-31T16:09:22.837Z,1.50
2019-03-31T16:11:53.112Z,1.97
2019-03-31T16:14:11.092Z,2.17
2019-03-31T16:16:39.523Z,2.30
2019-03-31T16:19:07.962Z,1.80
2019-03-31T16:21:36.392Z,2.30
2019-03-31T16:24:04.830Z,2.10
2019-03-31T16:26:33.266Z,2.30
2019-03-31T16:29:01.896Z,1.83
2019-03-31T16:31:30.337Z,2.10
2019-03-31T16:33:58.972Z,1.90
2019-03-31T16:36:27.429Z,2.40
2019-03-31T16:38:55.859Z,2.27
2019-03-31T16:41:24.708Z,1.80
2019-03-31T16:43:53.382Z,1.50
2019-03-31T16:46:22.080Z,1.60
2019-03-31T16:48:50.543Z,2.30
2019-03-31T16:51:19.501Z,2.17
2019-03-31T16:53:47.934Z,2.33
2019-03-31T16:56:16.382Z,1.80
2019-03-31T16:58:44.827Z,1.50
2019-03-31T17:01:13.324Z,1.90
2019-03-31T17:03:41.754Z,2.17
2019-03-31T17:06:10.326Z,2.33
2019-03-31T17:08:39.039Z,1.47
2019-03-31T17:11:07.490Z,1.67
2019-03-31T17:13:35.979Z,2.20
2019-03-31T17:16:04.607Z,1.73
2019-03-31T17:18:33.039Z,2.03
2019-03-31T17:21:01.566Z,3.57
2019-03-31T17:23:29.991Z,2.40
2019-03-31T17:25:58.442Z,2.83
2019-03-31T17:28:27.700Z,1.93
2019-03-31T17:30:56.142Z,2.00
2019-03-31T17:33:24.708Z,1.93
2019-03-31T17:35:53.252Z,1.83
2019-03-31T17:38:21.674Z,2.50
2019-03-31T17:40:50.131Z,2.33
2019-03-31T17:43:18.602Z,2.40
2019-03-31T17:45:47.037Z,2.33
2019-03-31T17:48:15.483Z,1.90
2019-03-31T17:50:44.009Z,1.80
2019-03-31T17:53:12.455Z,1.50
2019-03-31T17:55:40.916Z,2.90
2019-03-31T17:58:09.432Z,4.80
2019-03-31T18:00:37.866Z,2.53
2019-03-31T18:03:06.313Z,3.80
2019-03-31T18:05:34.818Z,2.60
2019-03-31T18:08:03.313Z,2.40
2019-03-31T18:10:31.757Z,3.00
2019-03-31T18:13:00.215Z,3.70
2019-03-31T18:15:28.646Z,1.97
2019-03-31T18:17:57.080Z,2.67
2019-03-31T18:20:25.516Z,3.27
2019-03-31T18:22:53.987Z,2.40
2019-03-31T18:25:23.695Z,1.87
2019-03-31T18:27:52.192Z,3.00
2019-03-31T18:30:21.259Z,2.70
2019-03-31T18:32:49.697Z,3.30
2019-03-31T18:35:18.251Z,3.60
2019-03-31T18:37:46.682Z,2.50
2019-03-31T18:40:15.242Z,2.50
2019-03-31T18:42:43.928Z,3.73
2019-03-31T18:45:12.413Z,2.10
2019-03-31T18:47:40.863Z,3.40
2019-03-31T18:50:09.525Z,2.10
2019-03-31T18:52:38.035Z,2.50
2019-03-31T18:55:26.683Z,2.40
2019-03-31T18:57:57.092Z,2.27
2019-03-31T19:00:35.903Z,2.43
2019-03-31T19:03:22.691Z,3.00
2019-03-31T19:06:09.206Z,2.53
2019-03-31T19:08:51.466Z,2.47
2019-03-31T19:11:36.756Z,2.87
2019-03-31T19:14:12.718Z,3.87
2019-03-31T19:16:54.741Z,2.80
2019-03-31T19:19:27.760Z,2.97
2019-03-31T19:22:06.681Z,2.37
2019-03-31T19:24:53.265Z,3.17
2019-03-31T19:27:26.351Z,3.27
2019-03-31T19:29:59.365Z,3.07
2019-03-31T19:32:29.439Z,3.80
2019-03-31T19:35:16.069Z,3.37
2019-03-31T19:37:46.310Z,2.33
2019-03-31T19:40:22.294Z,2.40
2019-03-31T19:43:04.173Z,2.70
2019-03-31T19:45:37.195Z,2.83
2019-03-31T19:48:07.275Z,2.13
2019-03-31T19:50:37.360Z,3.93
2019-03-31T19:53:16.249Z,2.50
2019-03-31T19:55:50.616Z,3.10
2019-03-31T19:58:36.914Z,2.53
2019-03-31T20:01:25.221Z,4.13
2019-03-31T20:03:55.295Z,4.50
2019-03-31T20:06:34.358Z,2.60
2019-03-31T20:09:07.574Z,4.90
2019-03-31T20:11:37.668Z,2.90
2019-03-31T20:14:13.475Z,4.17
2019-03-31T20:16:49.500Z,3.57
2019-03-31T20:19:28.284Z,3.20
2019-03-31T20:21:58.395Z,3.33
2019-03-31T20:24:34.262Z,2.63
2019-03-31T20:27:13.489Z,3.80
2019-03-31T20:29:55.286Z,2.93
2019-03-31T20:32:43.319Z,3.67
2019-03-31T20:35:13.386Z,4.30
2019-03-31T20:37:46.663Z,2.23
2019-03-31T20:40:25.661Z,2.80
2019-03-31T20:43:01.875Z,2.67
2019-03-31T20:45:30.325Z,2.63
2019-03-31T20:47:58.758Z,2.33
2019-03-31T20:50:27.182Z,2.13
2019-03-31T20:52:55.744Z,3.23
2019-03-31T20:55:24.165Z,4.17
2019-03-31T20:57:52.607Z,2.73
2019-03-31T21:00:21.519Z,3.60
2019-03-31T21:02:49.954Z,2.30
2019-03-31T21:05:18.426Z,2.87
2019-03-31T21:07:46.934Z,2.50
2019-03-31T21:10:15.509Z,3.20
2019-03-31T21:12:43.990Z,4.53
2019-03-31T21:15:12.585Z,2.90
2019-03-31T21:17:41.023Z,2.70
2019-03-31T21:20:09.665Z,2.60
2019-03-31T21:22:38.121Z,2.43
2019-03-31T21:25:06.619Z,2.50
2019-03-31T21:27:35.061Z,2.50
2019-03-31T21:30:04.990Z,2.33
2019-03-31T21:32:33.429Z,2.77
2019-03-31T21:35:01.877Z,2.43
2019-03-31T21:37:30.365Z,2.63
2019-03-31T21:39:58.853Z,2.27
2019-03-31T21:42:27.269Z,2.47
2019-03-31T21:44:55.744Z,3.50
2019-03-31T21:47:25.347Z,2.80
2019-03-31T21:49:54.888Z,3.03
2019-03-31T21:52:23.323Z,2.63
2019-03-31T21:54:51.762Z,3.90
2019-03-31T21:57:20.200Z,24.03
2019-03-31T21:59:48.643Z,10.57
2019-03-31T22:02:17.206Z,3.13
2019-03-31T22:04:45.648Z,2.70
2019-03-31T22:07:14.105Z,2.90
2019-03-31T22:09:42.614Z,2.17
2019-03-31T22:12:11.040Z,3.00
2019-03-31T22:14:40.721Z,3.30
2019-03-31T22:17:08.814Z,3.20
2019-03-31T22:19:37.341Z,3.13
2019-03-31T22:22:05.789Z,2.03
2019-03-31T22:24:34.416Z,3.20
2019-03-31T22:27:02.861Z,2.60
2019-03-31T22:29:31.293Z,3.50
2019-03-31T22:32:03.838Z,2.47
2019-03-31T22:34:37.296Z,2.20
2019-03-31T22:37:05.871Z,2.87
2019-03-31T22:39:37.525Z,2.90
2019-03-31T22:42:06.094Z,4.17
2019-03-31T22:44:34.558Z,3.07
2019-03-31T22:47:02.982Z,3.70
2019-03-31T22:49:31.409Z,2.73
2019-03-31T22:51:59.926Z,2.90
2019-03-31T22:54:28.373Z,2.93
2019-03-31T22:56:56.838Z,2.10
2019-03-31T22:59:25.269Z,2.67
2019-03-31T23:01:53.717Z,2.10
2019-03-31T23:04:25.069Z,2.40
2019-03-31T23:06:53.522Z,2.00
2019-03-31T23:09:21.951Z,2.10
2019-03-31T23:11:50.387Z,2.10
2019-03-31T23:14:18.816Z,2.20
2019-03-31T23:16:47.241Z,2.33
2019-03-31T23:19:15.681Z,3.30
2019-03-31T23:21:44.313Z,1.90
2019-03-31T23:24:12.894Z,2.17
2019-03-31T23:26:41.345Z,2.07
2019-03-31T23:29:09.758Z,2.13
2019-03-31T23:31:38.204Z,2.20
2019-03-31T23:34:06.630Z,1.77
2019-03-31T23:36:35.058Z,2.07
2019-03-31T23:39:05.225Z,2.77
2019-03-31T23:41:33.690Z,2.00
2019-03-31T23:44:02.109Z,3.07
2019-03-31T23:46:30.538Z,2.00
2019-03-31T23:48:58.966Z,1.90
2019-03-31T23:51:27.402Z,2.33
2019-03-31T23:53:55.830Z,1.87
2019-03-31T23:56:24.363Z,2.20
2019-03-31T23:58:52.786Z,1.83
